sensor_id;sensor_type;location;lat;lon;timestamp;P1;durP1;ratioP1;P2;durP2;ratioP2
25938;SDS011;13739;51.172;4.466;2022-11-27T00:01:39;15.43;;;3.55;;
25938;SDS011;13739;51.172;4.466;2022-11-27T00:04:06;14.80;;;3.08;;
25938;SDS011;13739;51.172;4.466;2022-11-27T00:06:33;16.73;;;3.83;;
25938;SDS011;13739;51.172;4.466;2022-11-27T00:09:00;7.57;;;2.97;;
25938;SDS011;13739;51.172;4.466;2022-11-27T00:11:28;13.23;;;3.22;;
25938;SDS011;13739;51.172;4.466;2022-11-27T00:13:55;11.05;;;3.15;;
25938;SDS011;13739;51.172;4.466;2022-11-27T00:16:21;13.93;;;3.58;;
25938;SDS011;13739;51.172;4.466;2022-11-27T00:18:48;8.35;;;3.42;;
25938;SDS011;13739;51.172;4.466;2022-11-27T00:21:19;8.27;;;2.92;;
25938;SDS011;13739;51.172;4.466;2022-11-27T00:23:48;11.02;;;3.17;;
25938;SDS011;13739;51.172;4.466;2022-11-27T00:26:14;16.55;;;3.20;;
25938;SDS011;13739;51.172;4.466;2022-11-27T00:28:40;12.10;;;4.32;;
25938;SDS011;13739;51.172;4.466;2022-11-27T00:31:07;11.13;;;3.00;;
25938;SDS011;13739;51.172;4.466;2022-11-27T00:33:44;13.98;;;3.33;;
25938;SDS011;13739;51.172;4.466;2022-11-27T00:36:10;16.92;;;3.67;;
25938;SDS011;13739;51.172;4.466;2022-11-27T00:38:36;11.40;;;3.30;;
25938;SDS011;13739;51.172;4.466;2022-11-27T00:41:10;12.32;;;2.85;;
25938;SDS011;13739;51.172;4.466;2022-11-27T00:43:38;11.13;;;3.35;;
25938;SDS011;13739;51.172;4.466;2022-11-27T00:46:04;7.28;;;2.20;;
25938;SDS011;13739;51.172;4.466;2022-11-27T00:48:30;14.52;;;2.92;;
25938;SDS011;13739;51.172;4.466;2022-11-27T00:51:00;8.98;;;2.72;;
25938;SDS011;13739;51.172;4.466;2022-11-27T00:53:30;8.35;;;2.95;;
25938;SDS011;13739;51.172;4.466;2022-11-27T00:55:56;10.23;;;3.45;;
25938;SDS011;13739;51.172;4.466;2022-11-27T00:58:22;11.93;;;2.67;;
25938;SDS011;13739;51.172;4.466;2022-11-27T01:03:20;13.73;;;3.65;;
25938;SDS011;13739;51.172;4.466;2022-11-27T01:05:47;7.10;;;2.65;;
25938;SDS011;13739;51.172;4.466;2022-11-27T01:08:12;7.78;;;2.75;;
25938;SDS011;13739;51.172;4.466;2022-11-27T01:10:38;15.07;;;3.17;;
25938;SDS011;13739;51.172;4.466;2022-11-27T01:13:04;10.27;;;2.45;;
25938;SDS011;13739;51.172;4.466;2022-11-27T01:15:29;16.73;;;2.90;;
25938;SDS011;13739;51.172;4.466;2022-11-27T01:17:55;10.65;;;2.38;;
25938;SDS011;13739;51.172;4.466;2022-11-27T01:20:20;19.10;;;2.95;;
25938;SDS011;13739;51.172;4.466;2022-11-27T01:22:46;9.07;;;2.90;;
25938;SDS011;13739;51.172;4.466;2022-11-27T01:25:12;12.07;;;2.33;;
25938;SDS011;13739;51.172;4.466;2022-11-27T01:27:37;8.88;;;2.80;;
25938;SDS011;13739;51.172;4.466;2022-11-27T01:30:03;10.27;;;2.08;;
25938;SDS011;13739;51.172;4.466;2022-11-27T01:32:29;11.15;;;2.53;;
25938;SDS011;13739;51.172;4.466;2022-11-27T01:34:55;17.23;;;2.58;;
25938;SDS011;13739;51.172;4.466;2022-11-27T01:37:20;10.40;;;3.08;;
25938;SDS011;13739;51.172;4.466;2022-11-27T01:39:46;6.90;;;2.30;;
25938;SDS011;13739;51.172;4.466;2022-11-27T01:42:11;11.10;;;2.30;;
25938;SDS011;13739;51.172;4.466;2022-11-27T01:47:15;12.75;;;2.70;;
25938;SDS011;13739;51.172;4.466;2022-11-27T01:49:50;11.18;;;3.40;;
25938;SDS011;13739;51.172;4.466;2022-11-27T01:52:20;8.60;;;2.28;;
25938;SDS011;13739;51.172;4.466;2022-11-27T01:57:24;9.75;;;2.97;;
25938;SDS011;13739;51.172;4.466;2022-11-27T01:59:55;8.30;;;2.03;;
25938;SDS011;13739;51.172;4.466;2022-11-27T02:02:22;8.68;;;2.42;;
25938;SDS011;13739;51.172;4.466;2022-11-27T02:04:48;11.70;;;2.50;;
25938;SDS011;13739;51.172;4.466;2022-11-27T02:07:13;11.38;;;2.20;;
25938;SDS011;13739;51.172;4.466;2022-11-27T02:09:39;6.45;;;2.00;;
25938;SDS011;13739;51.172;4.466;2022-11-27T02:14:51;10.07;;;2.70;;
25938;SDS011;13739;51.172;4.466;2022-11-27T02:20:12;16.23;;;2.42;;
25938;SDS011;13739;51.172;4.466;2022-11-27T02:34:10;11.63;;;2.08;;
25938;SDS011;13739;51.172;4.466;2022-11-27T02:36:42;9.23;;;2.28;;
25938;SDS011;13739;51.172;4.466;2022-11-27T02:39:16;8.48;;;2.63;;
25938;SDS011;13739;51.172;4.466;2022-11-27T02:41:51;6.18;;;2.20;;
25938;SDS011;13739;51.172;4.466;2022-11-27T02:44:21;6.07;;;2.13;;
25938;SDS011;13739;51.172;4.466;2022-11-27T02:46:49;9.88;;;2.30;;
25938;SDS011;13739;51.172;4.466;2022-11-27T02:49:17;5.13;;;1.90;;
25938;SDS011;13739;51.172;4.466;2022-11-27T02:51:45;7.03;;;2.22;;
25938;SDS011;13739;51.172;4.466;2022-11-27T02:54:17;11.18;;;2.28;;
25938;SDS011;13739;51.172;4.466;2022-11-27T02:56:47;5.95;;;1.95;;
25938;SDS011;13739;51.172;4.466;2022-11-27T02:59:15;5.85;;;2.00;;
25938;SDS011;13739;51.172;4.466;2022-11-27T03:01:44;6.75;;;2.25;;
25938;SDS011;13739;51.172;4.466;2022-11-27T03:04:15;7.38;;;2.60;;
25938;SDS011;13739;51.172;4.466;2022-11-27T03:06:46;7.32;;;2.03;;
25938;SDS011;13739;51.172;4.466;2022-11-27T03:09:17;6.32;;;2.20;;
25938;SDS011;13739;51.172;4.466;2022-11-27T03:11:48;14.65;;;3.20;;
25938;SDS011;13739;51.172;4.466;2022-11-27T03:14:13;4.45;;;1.90;;
25938;SDS011;13739;51.172;4.466;2022-11-27T03:19:18;8.32;;;2.38;;
25938;SDS011;13739;51.172;4.466;2022-11-27T03:21:52;6.47;;;2.10;;
25938;SDS011;13739;51.172;4.466;2022-11-27T03:24:21;9.63;;;2.13;;
25938;SDS011;13739;51.172;4.466;2022-11-27T03:26:47;2.88;;;1.67;;
25938;SDS011;13739;51.172;4.466;2022-11-27T03:29:15;5.03;;;1.67;;
25938;SDS011;13739;51.172;4.466;2022-11-27T03:31:45;15.05;;;2.65;;
25938;SDS011;13739;51.172;4.466;2022-11-27T03:34:12;9.10;;;1.90;;
25938;SDS011;13739;51.172;4.466;2022-11-27T03:36:38;6.65;;;1.92;;
25938;SDS011;13739;51.172;4.466;2022-11-27T03:39:03;6.53;;;2.00;;
25938;SDS011;13739;51.172;4.466;2022-11-27T03:58:08;4.57;;;1.73;;
25938;SDS011;13739;51.172;4.466;2022-11-27T04:00:40;8.50;;;1.80;;
25938;SDS011;13739;51.172;4.466;2022-11-27T04:03:11;3.22;;;1.50;;
25938;SDS011;13739;51.172;4.466;2022-11-27T04:05:37;7.57;;;1.80;;
25938;SDS011;13739;51.172;4.466;2022-11-27T04:08:04;5.68;;;1.70;;
25938;SDS011;13739;51.172;4.466;2022-11-27T04:10:30;4.82;;;1.70;;
25938;SDS011;13739;51.172;4.466;2022-11-27T04:12:55;6.53;;;2.40;;
25938;SDS011;13739;51.172;4.466;2022-11-27T04:15:21;9.43;;;2.40;;
25938;SDS011;13739;51.172;4.466;2022-11-27T04:17:47;11.07;;;2.47;;
25938;SDS011;13739;51.172;4.466;2022-11-27T04:20:12;8.52;;;1.70;;
25938;SDS011;13739;51.172;4.466;2022-11-27T04:22:39;4.78;;;1.92;;
25938;SDS011;13739;51.172;4.466;2022-11-27T04:25:05;6.28;;;1.85;;
25938;SDS011;13739;51.172;4.466;2022-11-27T04:27:31;4.57;;;1.85;;
25938;SDS011;13739;51.172;4.466;2022-11-27T04:29:57;5.22;;;2.25;;
25938;SDS011;13739;51.172;4.466;2022-11-27T04:32:22;7.22;;;2.22;;
25938;SDS011;13739;51.172;4.466;2022-11-27T04:34:48;6.25;;;1.73;;
25938;SDS011;13739;51.172;4.466;2022-11-27T04:37:14;5.75;;;1.80;;
25938;SDS011;13739;51.172;4.466;2022-11-27T04:39:40;10.18;;;2.40;;
25938;SDS011;13739;51.172;4.466;2022-11-27T04:42:05;6.63;;;1.60;;
25938;SDS011;13739;51.172;4.466;2022-11-27T04:44:31;8.52;;;2.10;;
25938;SDS011;13739;51.172;4.466;2022-11-27T04:46:57;5.53;;;1.90;;
25938;SDS011;13739;51.172;4.466;2022-11-27T04:49:22;4.88;;;1.85;;
25938;SDS011;13739;51.172;4.466;2022-11-27T04:51:48;8.38;;;2.10;;
25938;SDS011;13739;51.172;4.466;2022-11-27T04:54:13;3.63;;;1.45;;
25938;SDS011;13739;51.172;4.466;2022-11-27T04:56:39;8.93;;;2.03;;
25938;SDS011;13739;51.172;4.466;2022-11-27T04:59:05;4.47;;;2.40;;
25938;SDS011;13739;51.172;4.466;2022-11-27T05:01:30;8.02;;;1.92;;
25938;SDS011;13739;51.172;4.466;2022-11-27T05:03:56;6.40;;;1.88;;
25938;SDS011;13739;51.172;4.466;2022-11-27T05:06:21;6.35;;;2.63;;
25938;SDS011;13739;51.172;4.466;2022-11-27T05:08:47;7.10;;;2.17;;
25938;SDS011;13739;51.172;4.466;2022-11-27T05:11:14;4.88;;;1.88;;
25938;SDS011;13739;51.172;4.466;2022-11-27T05:13:41;10.43;;;2.13;;
25938;SDS011;13739;51.172;4.466;2022-11-27T05:16:07;7.50;;;2.40;;
25938;SDS011;13739;51.172;4.466;2022-11-27T05:18:33;6.45;;;2.00;;
25938;SDS011;13739;51.172;4.466;2022-11-27T05:21:00;10.75;;;2.20;;
25938;SDS011;13739;51.172;4.466;2022-11-27T05:23:28;6.40;;;2.30;;
25938;SDS011;13739;51.172;4.466;2022-11-27T05:25:55;6.05;;;2.28;;
25938;SDS011;13739;51.172;4.466;2022-11-27T05:28:21;6.07;;;2.30;;
25938;SDS011;13739;51.172;4.466;2022-11-27T05:30:47;4.15;;;1.80;;
25938;SDS011;13739;51.172;4.466;2022-11-27T05:33:14;5.80;;;2.15;;
25938;SDS011;13739;51.172;4.466;2022-11-27T05:35:41;4.22;;;1.90;;
25938;SDS011;13739;51.172;4.466;2022-11-27T05:38:07;11.75;;;2.80;;
25938;SDS011;13739;51.172;4.466;2022-11-27T05:40:33;4.47;;;2.33;;
25938;SDS011;13739;51.172;4.466;2022-11-27T05:42:59;5.47;;;2.20;;
25938;SDS011;13739;51.172;4.466;2022-11-27T05:45:24;7.20;;;2.30;;
25938;SDS011;13739;51.172;4.466;2022-11-27T05:47:50;7.10;;;1.95;;
25938;SDS011;13739;51.172;4.466;2022-11-27T05:50:16;5.90;;;2.40;;
25938;SDS011;13739;51.172;4.466;2022-11-27T05:52:41;7.68;;;1.98;;
25938;SDS011;13739;51.172;4.466;2022-11-27T05:55:07;5.88;;;2.38;;
25938;SDS011;13739;51.172;4.466;2022-11-27T05:57:33;4.35;;;2.20;;
25938;SDS011;13739;51.172;4.466;2022-11-27T05:59:59;7.82;;;2.40;;
25938;SDS011;13739;51.172;4.466;2022-11-27T06:02:24;7.03;;;2.00;;
25938;SDS011;13739;51.172;4.466;2022-11-27T06:04:50;13.95;;;2.45;;
25938;SDS011;13739;51.172;4.466;2022-11-27T06:07:16;8.57;;;2.47;;
25938;SDS011;13739;51.172;4.466;2022-11-27T06:09:42;7.45;;;2.40;;
25938;SDS011;13739;51.172;4.466;2022-11-27T06:12:08;7.93;;;2.83;;
25938;SDS011;13739;51.172;4.466;2022-11-27T06:14:34;7.72;;;3.28;;
25938;SDS011;13739;51.172;4.466;2022-11-27T06:17:00;7.10;;;2.50;;
25938;SDS011;13739;51.172;4.466;2022-11-27T06:19:27;11.88;;;3.05;;
25938;SDS011;13739;51.172;4.466;2022-11-27T06:21:53;7.45;;;2.75;;
25938;SDS011;13739;51.172;4.466;2022-11-27T06:24:18;6.95;;;3.08;;
25938;SDS011;13739;51.172;4.466;2022-11-27T06:26:44;9.45;;;3.35;;
25938;SDS011;13739;51.172;4.466;2022-11-27T06:37:07;10.88;;;3.10;;
25938;SDS011;13739;51.172;4.466;2022-11-27T06:47:19;7.80;;;2.95;;
25938;SDS011;13739;51.172;4.466;2022-11-27T06:49:44;7.25;;;3.13;;
25938;SDS011;13739;51.172;4.466;2022-11-27T06:52:10;8.27;;;2.58;;
25938;SDS011;13739;51.172;4.466;2022-11-27T06:54:36;8.13;;;3.20;;
25938;SDS011;13739;51.172;4.466;2022-11-27T06:57:03;5.80;;;2.67;;
25938;SDS011;13739;51.172;4.466;2022-11-27T07:15:01;12.38;;;3.67;;
25938;SDS011;13739;51.172;4.466;2022-11-27T07:17:27;9.77;;;3.17;;
25938;SDS011;13739;51.172;4.466;2022-11-27T07:22:30;10.20;;;3.47;;
25938;SDS011;13739;51.172;4.466;2022-11-27T07:27:31;9.07;;;3.60;;
25938;SDS011;13739;51.172;4.466;2022-11-27T07:29:58;14.45;;;5.35;;
25938;SDS011;13739;51.172;4.466;2022-11-27T07:32:24;11.48;;;4.15;;
25938;SDS011;13739;51.172;4.466;2022-11-27T07:34:50;15.85;;;5.28;;
25938;SDS011;13739;51.172;4.466;2022-11-27T07:37:15;13.60;;;4.15;;
25938;SDS011;13739;51.172;4.466;2022-11-27T07:39:41;9.63;;;4.15;;
25938;SDS011;13739;51.172;4.466;2022-11-27T07:42:07;11.57;;;4.07;;
25938;SDS011;13739;51.172;4.466;2022-11-27T07:44:34;14.00;;;4.15;;
25938;SDS011;13739;51.172;4.466;2022-11-27T07:46:59;9.95;;;3.20;;
25938;SDS011;13739;51.172;4.466;2022-11-27T07:49:26;11.50;;;3.28;;
25938;SDS011;13739;51.172;4.466;2022-11-27T07:51:51;13.73;;;3.55;;
25938;SDS011;13739;51.172;4.466;2022-11-27T07:54:17;10.27;;;3.45;;
25938;SDS011;13739;51.172;4.466;2022-11-27T07:56:43;9.68;;;3.28;;
25938;SDS011;13739;51.172;4.466;2022-11-27T08:06:55;9.52;;;3.70;;
25938;SDS011;13739;51.172;4.466;2022-11-27T08:09:22;9.95;;;3.60;;
25938;SDS011;13739;51.172;4.466;2022-11-27T08:11:48;7.43;;;3.22;;
25938;SDS011;13739;51.172;4.466;2022-11-27T08:14:13;9.55;;;4.03;;
25938;SDS011;13739;51.172;4.466;2022-11-27T08:16:40;12.85;;;3.92;;
25938;SDS011;13739;51.172;4.466;2022-11-27T08:19:06;9.70;;;3.35;;
25938;SDS011;13739;51.172;4.466;2022-11-27T08:21:32;12.60;;;4.20;;
25938;SDS011;13739;51.172;4.466;2022-11-27T08:23:57;10.45;;;3.63;;
25938;SDS011;13739;51.172;4.466;2022-11-27T08:26:23;13.15;;;3.75;;
25938;SDS011;13739;51.172;4.466;2022-11-27T08:28:51;14.13;;;4.30;;
25938;SDS011;13739;51.172;4.466;2022-11-27T08:31:23;11.93;;;3.40;;
25938;SDS011;13739;51.172;4.466;2022-11-27T08:34:07;13.80;;;4.03;;
25938;SDS011;13739;51.172;4.466;2022-11-27T08:36:33;11.43;;;3.92;;
25938;SDS011;13739;51.172;4.466;2022-11-27T08:38:58;15.50;;;4.60;;
25938;SDS011;13739;51.172;4.466;2022-11-27T08:41:24;11.10;;;3.90;;
25938;SDS011;13739;51.172;4.466;2022-11-27T08:43:50;13.48;;;4.25;;
25938;SDS011;13739;51.172;4.466;2022-11-27T08:46:15;14.73;;;4.10;;
25938;SDS011;13739;51.172;4.466;2022-11-27T08:48:41;13.35;;;3.88;;
25938;SDS011;13739;51.172;4.466;2022-11-27T08:51:10;8.52;;;3.78;;
25938;SDS011;13739;51.172;4.466;2022-11-27T08:53:38;13.73;;;4.95;;
25938;SDS011;13739;51.172;4.466;2022-11-27T08:56:06;11.23;;;4.60;;
25938;SDS011;13739;51.172;4.466;2022-11-27T08:58:38;13.80;;;4.03;;
25938;SDS011;13739;51.172;4.466;2022-11-27T09:01:05;14.50;;;4.75;;
25938;SDS011;13739;51.172;4.466;2022-11-27T09:03:32;12.75;;;4.05;;
25938;SDS011;13739;51.172;4.466;2022-11-27T09:05:58;10.18;;;3.60;;
25938;SDS011;13739;51.172;4.466;2022-11-27T09:08:23;12.82;;;3.80;;
25938;SDS011;13739;51.172;4.466;2022-11-27T09:10:49;14.02;;;3.83;;
25938;SDS011;13739;51.172;4.466;2022-11-27T09:13:15;11.27;;;3.88;;
25938;SDS011;13739;51.172;4.466;2022-11-27T09:15:40;15.57;;;3.97;;
25938;SDS011;13739;51.172;4.466;2022-11-27T09:18:06;9.80;;;3.22;;
25938;SDS011;13739;51.172;4.466;2022-11-27T09:20:32;13.10;;;3.65;;
25938;SDS011;13739;51.172;4.466;2022-11-27T09:22:57;12.20;;;4.40;;
25938;SDS011;13739;51.172;4.466;2022-11-27T09:25:26;10.02;;;3.75;;
25938;SDS011;13739;51.172;4.466;2022-11-27T09:27:52;8.85;;;3.70;;
25938;SDS011;13739;51.172;4.466;2022-11-27T09:30:17;8.77;;;3.80;;
25938;SDS011;13739;51.172;4.466;2022-11-27T09:32:43;11.60;;;3.78;;
25938;SDS011;13739;51.172;4.466;2022-11-27T09:35:10;9.27;;;3.72;;
25938;SDS011;13739;51.172;4.466;2022-11-27T09:37:35;12.50;;;4.70;;
25938;SDS011;13739;51.172;4.466;2022-11-27T09:40:01;15.45;;;4.43;;
25938;SDS011;13739;51.172;4.466;2022-11-27T09:42:34;7.88;;;3.63;;
25938;SDS011;13739;51.172;4.466;2022-11-27T09:45:06;9.88;;;4.28;;
25938;SDS011;13739;51.172;4.466;2022-11-27T09:52:58;15.13;;;4.15;;
25938;SDS011;13739;51.172;4.466;2022-11-27T09:55:43;7.63;;;3.60;;
25938;SDS011;13739;51.172;4.466;2022-11-27T09:58:39;14.38;;;3.65;;
25938;SDS011;13739;51.172;4.466;2022-11-27T10:03:51;13.85;;;3.72;;
25938;SDS011;13739;51.172;4.466;2022-11-27T10:26:14;9.63;;;3.72;;
25938;SDS011;13739;51.172;4.466;2022-11-27T10:28:52;10.23;;;3.70;;
25938;SDS011;13739;51.172;4.466;2022-11-27T10:34:36;10.07;;;3.40;;
25938;SDS011;13739;51.172;4.466;2022-11-27T10:37:05;11.38;;;3.78;;
25938;SDS011;13739;51.172;4.466;2022-11-27T11:49:46;9.55;;;4.35;;
25938;SDS011;13739;51.172;4.466;2022-11-27T23:46:55;2.75;;;1.80;;
25938;SDS011;13739;51.172;4.466;2022-11-27T23:49:21;4.47;;;2.05;;
25938;SDS011;13739;51.172;4.466;2022-11-27T23:51:47;5.55;;;2.38;;
25938;SDS011;13739;51.172;4.466;2022-11-27T23:54:13;4.13;;;2.10;;
25938;SDS011;13739;51.172;4.466;2022-11-27T23:56:39;3.33;;;1.77;;
25938;SDS011;13739;51.172;4.466;2022-11-27T23:59:06;5.18;;;2.28;;
